Time;durP1;ratioP1;P1;durP2;ratioP2;P2;SDS_P1;SDS_P2;PMS_P1;PMS_P2;Temp;Humidity;BMP_temperature;BMP_pressure;BME280_temperature;BME280_humidity;BME280_pressure;Samples;Min_cycle;Max_cycle;Signal;HPM_P1;HPM_P2
2022/08/26 00:01:37;;;;;;;12.38;3.25;;;;;;;;;;5005507;28;20054;-76
2022/08/26 00:04:05;;;;;;;7.22;2.80;;;;;;;;;;5008279;28;20137;-76
2022/08/26 00:06:32;;;;;;;12.27;3.03;;;;;;;;;;5015119;28;20038;-76
2022/08/26 00:09:00;;;;;;;8.75;3.03;;;;;;;;;;5011667;28;20050;-76
2022/08/26 00:11:27;;;;;;;9.88;3.03;;;;;;;;;;5006501;28;20057;-76
2022/08/26 00:13:55;;;;;;;8.50;3.00;;;;;;;;;;5009512;28;20054;-75
2022/08/26 00:16:23;;;;;;;11.23;3.40;;;;;;;;;;5003860;28;20153;-77
2022/08/26 00:18:51;;;;;;;9.10;2.83;;;;;;;;;;5002988;28;20047;-76
2022/08/26 00:21:19;;;;;;;8.55;2.97;;;;;;;;;;5021354;28;20053;-75
2022/08/26 00:23:46;;;;;;;7.80;3.08;;;;;;;;;;5008716;28;20089;-77
2022/08/26 00:26:14;;;;;;;8.27;2.65;;;;;;;;;;5010739;28;20046;-76
2022/08/26 00:28:42;;;;;;;8.85;2.90;;;;;;;;;;5009423;28;20102;-76
2022/08/26 00:31:09;;;;;;;7.80;2.75;;;;;;;;;;5027118;28;20051;-77
2022/08/26 00:33:37;;;;;;;7.43;3.15;;;;;;;;;;5013823;28;20034;-77
2022/08/26 00:36:05;;;;;;;9.93;3.08;;;;;;;;;;5007488;28;20050;-75
2022/08/26 00:38:32;;;;;;;6.95;2.55;;;;;;;;;;5005567;28;20047;-76
2022/08/26 00:41:00;;;;;;;8.02;3.22;;;;;;;;;;5012854;28;20043;-75
2022/08/26 00:43:29;;;;;;;6.65;2.72;;;;;;;;;;5008729;28;20062;-75
2022/08/26 00:46:24;;;;;;;9.50;3.42;;;;;;;;;;5005438;28;20122;-76
2022/08/26 00:48:53;;;;;;;13.93;2.80;;;;;;;;;;5008489;28;20062;-77
2022/08/26 00:51:22;;;;;;;8.75;2.80;;;;;;;;;;5011276;28;20081;-76
2022/08/26 00:54:05;;;;;;;7.70;2.60;;;;;;;;;;5012654;28;20053;-77
2022/08/26 00:56:37;;;;;;;10.20;2.60;;;;;;;;;;5002708;28;20047;-76
2022/08/26 00:59:06;;;;;;;7.93;2.30;;;;;;;;;;4998678;28;20489;-75
2022/08/26 01:01:34;;;;;;;7.93;2.38;;;;;;;;;;5000760;28;20050;-76
2022/08/26 01:04:02;;;;;;;9.77;2.40;;;;;;;;;;4999148;28;20053;-76
2022/08/26 01:06:30;;;;;;;4.30;2.13;;;;;;;;;;5005901;28;20046;-76
2022/08/26 01:08:57;;;;;;;4.95;2.13;;;;;;;;;;5007490;28;20046;-76
2022/08/26 01:11:24;;;;;;;8.95;2.40;;;;;;;;;;5016715;28;20764;-76
2022/08/26 01:13:54;;;;;;;6.57;2.25;;;;;;;;;;5009848;28;20056;-76
2022/08/26 01:16:24;;;;;;;6.32;2.17;;;;;;;;;;5003909;28;20136;-76
2022/08/26 01:18:53;;;;;;;7.25;2.17;;;;;;;;;;5001906;28;20062;-77
2022/08/26 01:21:21;;;;;;;7.90;2.28;;;;;;;;;;5003323;28;20055;-76
2022/08/26 01:23:49;;;;;;;6.95;1.92;;;;;;;;;;5009311;28;20058;-76
2022/08/26 01:26:22;;;;;;;4.55;2.03;;;;;;;;;;5002126;28;20050;-75
2022/08/26 01:28:49;;;;;;;;;;;;;;;;;;5002142;28;20058;-75
2022/08/26 01:31:18;;;;;;;5.20;2.10;;;;;;;;;;5008627;28;45152;-76
2022/08/26 01:33:55;;;;;;;7.95;1.95;;;;;;;;;;5010686;28;20078;-76
2022/08/26 01:36:23;;;;;;;8.05;2.00;;;;;;;;;;5003733;28;20046;-76
2022/08/26 01:38:51;;;;;;;7.25;1.85;;;;;;;;;;5000221;28;20824;-75
2022/08/26 01:41:19;;;;;;;8.88;2.03;;;;;;;;;;5005845;28;20047;-75
2022/08/26 01:43:56;;;;;;;4.93;2.20;;;;;;;;;;5003834;28;20145;-75
2022/08/26 01:46:25;;;;;;;6.45;1.88;;;;;;;;;;5003236;28;20058;-76
2022/08/26 01:48:54;;;;;;;10.63;1.90;;;;;;;;;;5001892;28;20054;-76
2022/08/26 01:51:23;;;;;;;7.75;2.03;;;;;;;;;;5001769;28;20057;-75
2022/08/26 01:53:50;;;;;;;6.35;2.08;;;;;;;;;;5009544;28;20051;-76
2022/08/26 01:56:21;;;;;;;6.63;2.15;;;;;;;;;;5014313;28;20057;-75
2022/08/26 01:58:53;;;;;;;10.13;1.80;;;;;;;;;;5003670;28;20047;-75
2022/08/26 02:01:21;;;;;;;7.30;1.90;;;;;;;;;;5003889;28;20054;-76
2022/08/26 02:03:55;;;;;;;4.70;1.60;;;;;;;;;;5007686;28;20097;-76
2022/08/26 02:06:24;;;;;;;6.63;1.63;;;;;;;;;;5011942;28;20038;-76
2022/08/26 02:08:53;;;;;;;8.43;2.00;;;;;;;;;;5016699;28;20049;-76
2022/08/26 02:11:20;;;;;;;8.32;1.67;;;;;;;;;;5007443;28;20049;-75
2022/08/26 02:13:50;;;;;;;8.10;2.28;;;;;;;;;;5013090;28;20138;-75
2022/08/26 02:16:19;;;;;;;6.75;1.92;;;;;;;;;;5011260;28;20109;-75
2022/08/26 02:18:47;;;;;;;7.40;1.85;;;;;;;;;;4998843;28;20047;-75
2022/08/26 02:21:20;;;;;;;10.03;1.90;;;;;;;;;;5005180;28;20043;-76
2022/08/26 02:23:51;;;;;;;6.15;1.92;;;;;;;;;;5003891;28;20292;-76
2022/08/26 02:26:24;;;;;;;10.10;2.25;;;;;;;;;;5007569;28;20039;-75
2022/08/26 02:29:01;;;;;;;7.47;1.67;;;;;;;;;;5009786;28;20051;-75
2022/08/26 02:31:28;;;;;;;10.25;1.80;;;;;;;;;;5006407;28;20054;-76
2022/08/26 02:34:06;;;;;;;6.47;1.90;;;;;;;;;;5009237;28;20101;-75
2022/08/26 02:36:36;;;;;;;7.28;1.60;;;;;;;;;;5003669;28;20049;-75
2022/08/26 02:39:07;;;;;;;8.10;1.58;;;;;;;;;;5002966;28;20057;-76
2022/08/26 02:41:35;;;;;;;5.93;1.60;;;;;;;;;;5004374;28;20046;-75
2022/08/26 02:44:12;;;;;;;7.30;1.75;;;;;;;;;;5000668;28;20035;-74
2022/08/26 02:46:39;;;;;;;6.38;1.60;;;;;;;;;;5021954;28;20094;-75
2022/08/26 02:49:08;;;;;;;8.90;1.80;;;;;;;;;;5002709;28;20193;-76
2022/08/26 02:51:35;;;;;;;3.65;1.42;;;;;;;;;;5008416;28;20059;-75
2022/08/26 02:54:03;;;;;;;6.20;1.60;;;;;;;;;;5005956;28;20070;-76
2022/08/26 02:56:32;;;;;;;7.90;1.65;;;;;;;;;;5010778;28;20038;-75
2022/08/26 02:59:01;;;;;;;10.57;1.90;;;;;;;;;;5010191;28;20038;-76
2022/08/26 03:01:31;;;;;;;6.47;1.30;;;;;;;;;;5009431;28;20046;-75
2022/08/26 03:03:59;;;;;;;5.45;1.70;;;;;;;;;;5009965;28;20051;-76
2022/08/26 03:06:27;;;;;;;7.88;1.60;;;;;;;;;;5011952;28;20050;-76
2022/08/26 03:08:54;;;;;;;8.43;1.67;;;;;;;;;;5007900;28;20046;-76
2022/08/26 03:11:22;;;;;;;4.95;1.40;;;;;;;;;;5006508;28;20082;-76
2022/08/26 03:13:51;;;;;;;9.02;1.65;;;;;;;;;;5014957;28;20045;-75
2022/08/26 03:16:19;;;;;;;6.45;1.92;;;;;;;;;;5011357;28;20046;-76
2022/08/26 03:18:46;;;;;;;6.28;1.70;;;;;;;;;;5006586;28;20049;-75
2022/08/26 03:21:19;;;;;;;4.80;1.20;;;;;;;;;;5008501;28;20110;-77
2022/08/26 03:23:47;;;;;;;5.72;1.33;;;;;;;;;;5010584;28;20086;-76
2022/08/26 03:26:15;;;;;;;7.45;1.63;;;;;;;;;;5015798;28;20061;-76
2022/08/26 03:31:29;;;;;;;4.57;1.30;;;;;;;;;;5002981;28;20159;-76
2022/08/26 03:33:57;;;;;;;7.13;1.50;;;;;;;;;;5008898;28;20973;-76
2022/08/26 03:36:26;;;;;;;6.22;1.70;;;;;;;;;;5010950;28;20808;-76
2022/08/26 03:38:53;;;;;;;9.70;1.80;;;;;;;;;;5008990;28;20072;-77
2022/08/26 03:41:21;;;;;;;3.92;1.70;;;;;;;;;;5012771;28;20070;-75
2022/08/26 03:43:49;;;;;;;9.50;1.58;;;;;;;;;;5017346;28;20098;-76
2022/08/26 03:46:17;;;;;;;8.65;1.48;;;;;;;;;;5016579;28;20033;-75
2022/08/26 03:48:45;;;;;;;7.28;1.52;;;;;;;;;;5020764;28;20891;-75
2022/08/26 03:51:18;;;;;;;10.07;1.50;;;;;;;;;;5026555;28;20051;-76
2022/08/26 03:53:47;;;;;;;3.63;1.58;;;;;;;;;;5024923;28;20039;-76
2022/08/26 03:56:14;;;;;;;6.70;1.50;;;;;;;;;;5020280;28;20146;-75
2022/08/26 03:58:43;;;;;;;10.45;1.80;;;;;;;;;;5021597;28;20048;-75
2022/08/26 04:01:12;;;;;;;8.75;1.92;;;;;;;;;;5024893;28;20105;-76
2022/08/26 04:03:58;;;;;;;8.93;1.40;;;;;;;;;;5017362;28;20065;-75
2022/08/26 04:06:31;;;;;;;5.68;1.27;;;;;;;;;;5015537;28;20092;-75
2022/08/26 04:09:00;;;;;;;7.82;1.73;;;;;;;;;;5011417;28;20039;-76
2022/08/26 04:11:29;;;;;;;6.25;1.35;;;;;;;;;;5017600;28;20061;-75
2022/08/26 04:14:00;;;;;;;8.07;1.45;;;;;;;;;;5018047;28;20057;-76
2022/08/26 04:16:28;;;;;;;5.43;1.55;;;;;;;;;;5030880;28;20055;-74
2022/08/26 04:18:56;;;;;;;4.93;1.27;;;;;;;;;;5017586;28;20050;-75
2022/08/26 04:21:23;;;;;;;6.28;1.40;;;;;;;;;;5011130;28;20062;-76
2022/08/26 04:23:51;;;;;;;6.85;1.50;;;;;;;;;;5012446;28;20050;-77
2022/08/26 04:26:19;;;;;;;5.93;1.40;;;;;;;;;;5016861;28;20047;-76
2022/08/26 04:28:47;;;;;;;5.90;1.60;;;;;;;;;;5010184;28;20091;-76
2022/08/26 04:31:16;;;;;;;4.82;1.25;;;;;;;;;;5015901;28;20097;-75
2022/08/26 04:33:45;;;;;;;8.02;1.65;;;;;;;;;;5013317;28;20054;-76
2022/08/26 04:36:16;;;;;;;7.80;1.60;;;;;;;;;;5010168;28;20066;-76
2022/08/26 04:38:46;;;;;;;4.97;1.30;;;;;;;;;;5012777;28;20788;-75
2022/08/26 04:41:14;;;;;;;5.13;1.10;;;;;;;;;;5008671;28;20050;-75
2022/08/26 04:43:45;;;;;;;6.75;1.38;;;;;;;;;;5010988;28;20069;-76
2022/08/26 04:46:13;;;;;;;6.97;1.50;;;;;;;;;;5018543;28;20049;-76
2022/08/26 04:48:42;;;;;;;9.63;1.70;;;;;;;;;;5015528;28;20046;-76
2022/08/26 04:51:09;;;;;;;7.47;1.40;;;;;;;;;;5014510;28;20058;-75
2022/08/26 04:53:37;;;;;;;5.50;1.40;;;;;;;;;;5015238;28;20049;-75
2022/08/26 04:56:04;;;;;;;11.43;1.70;;;;;;;;;;5015093;28;21848;-76
2022/08/26 04:58:32;;;;;;;5.60;1.40;;;;;;;;;;5016095;28;20047;-76
2022/08/26 05:01:00;;;;;;;5.45;1.20;;;;;;;;;;5015698;28;21025;-76
2022/08/26 05:03:27;;;;;;;11.65;1.65;;;;;;;;;;5017509;28;20042;-75
2022/08/26 05:05:57;;;;;;;5.53;1.08;;;;;;;;;;5017752;28;20069;-76
2022/08/26 05:08:25;;;;;;;2.28;1.02;;;;;;;;;;5020400;28;20098;-76
2022/08/26 05:10:54;;;;;;;4.00;1.33;;;;;;;;;;5021805;28;20078;-76
2022/08/26 05:13:24;;;;;;;7.20;1.23;;;;;;;;;;5019194;28;20054;-76
2022/08/26 05:15:51;;;;;;;3.78;1.30;;;;;;;;;;5012707;28;20037;-76
2022/08/26 05:18:22;;;;;;;4.68;1.23;;;;;;;;;;5011295;28;20074;-75
2022/08/26 05:20:51;;;;;;;6.75;1.40;;;;;;;;;;5020542;28;20042;-76
2022/08/26 05:23:24;;;;;;;7.38;1.27;;;;;;;;;;5022598;28;20061;-75
2022/08/26 05:25:52;;;;;;;3.92;1.35;;;;;;;;;;5015033;28;20041;-75
2022/08/26 05:28:25;;;;;;;4.13;1.25;;;;;;;;;;5015080;28;20074;-76
2022/08/26 05:30:54;;;;;;;5.70;1.20;;;;;;;;;;5011156;28;20258;-75
2022/08/26 05:33:22;;;;;;;7.30;1.83;;;;;;;;;;5019183;28;20054;-75
2022/08/26 05:35:49;;;;;;;14.30;1.52;;;;;;;;;;5013693;28;20192;-76
2022/08/26 05:38:20;;;;;;;7.13;1.73;;;;;;;;;;5010566;28;20050;-75
2022/08/26 05:40:49;;;;;;;3.30;1.13;;;;;;;;;;5018237;28;20154;-76
2022/08/26 05:43:19;;;;;;;6.43;1.20;;;;;;;;;;5009192;28;20050;-75
2022/08/26 05:45:52;;;;;;;7.90;1.42;;;;;;;;;;5016505;28;20050;-75
2022/08/26 05:48:20;;;;;;;4.43;1.42;;;;;;;;;;5017583;28;20065;-76
2022/08/26 05:50:51;;;;;;;4.00;1.20;;;;;;;;;;5020242;28;20062;-77
2022/08/26 05:53:19;;;;;;;4.88;1.35;;;;;;;;;;5011852;28;20047;-76
2022/08/26 05:55:51;;;;;;;4.30;1.30;;;;;;;;;;5018242;28;20042;-75
2022/08/26 05:58:19;;;;;;;8.10;1.40;;;;;;;;;;5015620;28;20883;-77
2022/08/26 06:00:57;;;;;;;4.80;1.50;;;;;;;;;;5010751;28;20137;-75
2022/08/26 06:03:24;;;;;;;8.65;1.63;;;;;;;;;;5007063;28;20062;-75
2022/08/26 06:05:52;;;;;;;6.65;1.20;;;;;;;;;;5007654;28;20082;-76
2022/08/26 06:08:20;;;;;;;5.25;1.23;;;;;;;;;;5021625;28;20051;-74
2022/08/26 06:10:49;;;;;;;10.43;1.75;;;;;;;;;;5005107;28;20047;-75
2022/08/26 06:13:18;;;;;;;7.50;1.40;;;;;;;;;;5015927;28;20471;-75
2022/08/26 06:15:48;;;;;;;8.77;1.52;;;;;;;;;;5014614;28;20058;-76
2022/08/26 06:18:17;;;;;;;5.07;1.45;;;;;;;;;;5014907;28;20053;-76
2022/08/26 06:20:46;;;;;;;5.68;1.40;;;;;;;;;;5018705;28;20052;-76
2022/08/26 06:26:11;;;;;;;9.02;1.40;;;;;;;;;;5009185;28;20051;-76
2022/08/26 06:28:38;;;;;;;6.97;1.30;;;;;;;;;;5005636;28;20050;-76
2022/08/26 06:31:09;;;;;;;8.13;1.30;;;;;;;;;;5012563;28;20054;-75
2022/08/26 06:33:37;;;;;;;4.93;1.27;;;;;;;;;;5013095;28;20065;-75
2022/08/26 06:36:05;;;;;;;4.82;1.30;;;;;;;;;;5011607;28;20058;-77
2022/08/26 06:38:32;;;;;;;7.75;1.60;;;;;;;;;;5024408;28;20050;-76
2022/08/26 06:41:02;;;;;;;4.53;1.40;;;;;;;;;;5017084;28;20057;-75
2022/08/26 06:43:29;;;;;;;7.57;1.50;;;;;;;;;;5012021;28;20040;-76
2022/08/26 06:46:00;;;;;;;8.48;1.73;;;;;;;;;;5015577;28;20041;-76
2022/08/26 06:48:30;;;;;;;7.07;1.83;;;;;;;;;;5010667;28;20055;-76
2022/08/26 06:51:02;;;;;;;2.53;0.95;;;;;;;;;;5011173;28;20053;-76
2022/08/26 06:53:29;;;;;;;9.77;1.23;;;;;;;;;;5010367;28;20081;-76
2022/08/26 06:55:56;;;;;;;7.07;1.27;;;;;;;;;;5009050;28;20151;-75
2022/08/26 06:58:24;;;;;;;3.45;1.17;;;;;;;;;;5005574;28;20823;-75
2022/08/26 07:00:51;;;;;;;7.35;1.27;;;;;;;;;;5008550;28;20111;-75
2022/08/26 07:03:20;;;;;;;5.13;1.42;;;;;;;;;;5003629;28;20087;-75
2022/08/26 07:05:48;;;;;;;5.38;1.23;;;;;;;;;;5005153;28;20054;-74
2022/08/26 07:08:21;;;;;;;5.97;1.23;;;;;;;;;;5019866;28;20050;-75
2022/08/26 07:10:50;;;;;;;5.38;1.25;;;;;;;;;;5015354;28;20045;-75
2022/08/26 07:13:22;;;;;;;6.03;1.40;;;;;;;;;;5018967;28;20098;-75
2022/08/26 07:15:56;;;;;;;8.57;1.25;;;;;;;;;;5021749;28;20027;-77
2022/08/26 07:18:29;;;;;;;3.97;1.33;;;;;;;;;;5015011;28;20078;-75
2022/08/26 07:20:57;;;;;;;8.30;1.17;;;;;;;;;;5011241;28;20056;-76
2022/08/26 07:23:25;;;;;;;5.47;1.10;;;;;;;;;;5010544;28;20994;-74
2022/08/26 07:25:53;;;;;;;4.25;1.02;;;;;;;;;;5011211;28;20143;-76
2022/08/26 07:28:21;;;;;;;4.10;1.05;;;;;;;;;;5008754;28;20058;-74
2022/08/26 07:30:49;;;;;;;3.65;1.15;;;;;;;;;;5014811;28;20047;-75
2022/08/26 07:33:16;;;;;;;5.45;1.58;;;;;;;;;;5009495;28;20118;-76
2022/08/26 07:35:44;;;;;;;3.67;1.05;;;;;;;;;;5006761;28;20146;-76
2022/08/26 07:38:12;;;;;;;3.10;0.90;;;;;;;;;;5021198;28;20050;-76
2022/08/26 07:40:39;;;;;;;6.38;1.25;;;;;;;;;;5006930;28;20129;-75
2022/08/26 07:43:08;;;;;;;4.03;1.20;;;;;;;;;;5023907;28;20039;-75
2022/08/26 07:45:36;;;;;;;7.15;1.52;;;;;;;;;;5009692;28;20077;-75
2022/08/26 07:48:04;;;;;;;4.70;1.17;;;;;;;;;;5006407;28;20058;-76
2022/08/26 07:50:32;;;;;;;7.07;1.08;;;;;;;;;;5001105;28;20062;-76
2022/08/26 07:53:16;;;;;;;7.63;1.40;;;;;;;;;;5005460;28;20061;-75
2022/08/26 07:55:45;;;;;;;7.07;1.45;;;;;;;;;;5005571;28;20053;-76
2022/08/26 07:58:13;;;;;;;7.75;1.20;;;;;;;;;;5007452;28;20073;-76
2022/08/26 08:00:40;;;;;;;8.02;1.33;;;;;;;;;;5011759;28;20137;-75
2022/08/26 08:03:09;;;;;;;7.97;1.40;;;;;;;;;;5005565;28;20138;-76
2022/08/26 08:05:37;;;;;;;4.38;1.17;;;;;;;;;;5004457;28;20046;-76
2022/08/26 08:08:08;;;;;;;9.48;1.48;;;;;;;;;;5001936;28;20047;-77
2022/08/26 08:10:54;;;;;;;10.35;1.58;;;;;;;;;;5009047;28;20068;-75
2022/08/26 08:13:23;;;;;;;10.98;1.50;;;;;;;;;;5011843;28;20066;-76
2022/08/26 08:15:50;;;;;;;8.48;1.23;;;;;;;;;;5012904;28;20030;-75
2022/08/26 08:18:18;;;;;;;5.45;1.20;;;;;;;;;;5009721;28;20113;-74
2022/08/26 08:20:47;;;;;;;6.45;1.38;;;;;;;;;;5005363;28;20054;-77
2022/08/26 08:23:31;;;;;;;4.47;1.30;;;;;;;;;;5000652;28;20146;-75
2022/08/26 08:26:11;;;;;;;7.88;1.52;;;;;;;;;;5007332;28;20058;-76
2022/08/26 08:28:39;;;;;;;8.52;1.65;;;;;;;;;;5004380;28;20130;-76
2022/08/26 08:31:08;;;;;;;3.92;1.30;;;;;;;;;;5007969;28;20042;-75
2022/08/26 08:33:36;;;;;;;8.45;1.20;;;;;;;;;;5000862;28;20043;-74
2022/08/26 08:36:06;;;;;;;7.68;1.30;;;;;;;;;;5003259;28;20124;-76
2022/08/26 08:38:35;;;;;;;7.47;1.40;;;;;;;;;;5010005;28;20050;-75
2022/08/26 08:41:02;;;;;;;5.47;1.10;;;;;;;;;;5015445;28;20106;-75
2022/08/26 08:43:38;;;;;;;3.28;1.00;;;;;;;;;;5009430;28;20050;-77
2022/08/26 08:46:09;;;;;;;4.93;1.08;;;;;;;;;;5001060;28;20098;-75
2022/08/26 08:48:38;;;;;;;3.13;1.00;;;;;;;;;;5011227;28;20058;-75
2022/08/26 08:51:07;;;;;;;4.13;1.00;;;;;;;;;;5005412;28;20064;-77
2022/08/26 08:53:40;;;;;;;2.40;0.80;;;;;;;;;;5001225;28;20075;-76
2022/08/26 08:56:25;;;;;;;6.63;1.35;;;;;;;;;;5003170;28;20108;-76
2022/08/26 08:58:58;;;;;;;6.25;0.85;;;;;;;;;;5009682;28;20050;-75
2022/08/26 09:01:46;;;;;;;6.05;1.17;;;;;;;;;;5009888;28;20051;-76
2022/08/26 09:04:37;;;;;;;5.93;1.17;;;;;;;;;;5013058;28;20051;-77
2022/08/26 09:07:09;;;;;;;9.38;1.15;;;;;;;;;;5008039;28;20039;-76
2022/08/26 09:09:56;;;;;;;7.18;1.40;;;;;;;;;;5007856;28;20928;-77
2022/08/26 09:12:35;;;;;;;6.60;1.10;;;;;;;;;;5008788;28;20047;-77
2022/08/26 09:15:05;;;;;;;5.68;1.17;;;;;;;;;;5012746;28;20129;-77
2022/08/26 09:17:41;;;;;;;10.48;1.10;;;;;;;;;;5007088;28;20057;-77
2022/08/26 09:20:17;;;;;;;6.10;1.20;;;;;;;;;;5008581;28;20080;-75
2022/08/26 09:22:44;;;;;;;5.70;1.20;;;;;;;;;;5000216;28;20058;-75
2022/08/26 09:25:13;;;;;;;4.15;1.02;;;;;;;;;;5003050;28;21665;-75
2022/08/26 09:27:40;;;;;;;7.22;1.20;;;;;;;;;;5000038;28;20050;-76
2022/08/26 09:30:09;;;;;;;7.88;1.00;;;;;;;;;;5003114;28;20105;-75
2022/08/26 09:32:38;;;;;;;6.43;1.23;;;;;;;;;;5001745;28;20137;-76
2022/08/26 09:35:07;;;;;;;4.82;1.00;;;;;;;;;;5017720;28;20079;-76
2022/08/26 09:37:35;;;;;;;3.83;0.93;;;;;;;;;;5002825;28;20054;-76
2022/08/26 09:40:18;;;;;;;4.20;1.00;;;;;;;;;;5003098;28;20054;-76
2022/08/26 09:42:46;;;;;;;6.40;0.90;;;;;;;;;;5002389;28;20057;-76
2022/08/26 09:45:26;;;;;;;4.95;1.20;;;;;;;;;;5002737;28;20060;-76
2022/08/26 09:47:56;;;;;;;6.05;1.08;;;;;;;;;;4997087;28;20776;-75
2022/08/26 09:50:32;;;;;;;4.47;0.88;;;;;;;;;;5000422;28;20086;-75
2022/08/26 09:53:14;;;;;;;2.92;0.75;;;;;;;;;;5000257;28;20058;-76
2022/08/26 09:55:43;;;;;;;4.35;0.98;;;;;;;;;;5000374;28;20054;-77
2022/08/26 09:58:16;;;;;;;10.73;1.10;;;;;;;;;;5003433;28;20109;-76
2022/08/26 10:00:56;;;;;;;3.35;0.90;;;;;;;;;;4999817;28;20509;-76
2022/08/26 10:03:27;;;;;;;5.82;1.00;;;;;;;;;;4997861;28;20489;-75
2022/08/26 10:06:06;;;;;;;3.50;1.20;;;;;;;;;;4996570;28;20137;-74
2022/08/26 10:08:42;;;;;;;7.40;1.27;;;;;;;;;;5001152;28;20109;-75
2022/08/26 10:11:23;;;;;;;4.13;0.82;;;;;;;;;;4999575;28;20054;-75
2022/08/26 10:13:54;;;;;;;10.40;1.20;;;;;;;;;;4997274;28;20076;-75
2022/08/26 10:16:22;;;;;;;2.42;0.85;;;;;;;;;;5000309;28;20058;-77
2022/08/26 10:19:12;;;;;;;4.53;1.00;;;;;;;;;;4997909;28;20050;-76
2022/08/26 10:21:42;;;;;;;2.78;0.98;;;;;;;;;;5003743;28;20077;-76
2022/08/26 10:24:10;;;;;;;7.68;1.13;;;;;;;;;;5017952;28;20046;-76
2022/08/26 10:26:57;;;;;;;7.75;1.30;;;;;;;;;;5001893;28;20074;-75
2022/08/26 10:29:37;;;;;;;3.78;1.20;;;;;;;;;;4994963;28;20123;-75
2022/08/26 10:32:11;;;;;;;3.35;1.17;;;;;;;;;;4999860;28;20046;-76
2022/08/26 10:34:41;;;;;;;10.88;1.23;;;;;;;;;;5001841;28;20066;-74
2022/08/26 10:37:17;;;;;;;5.75;1.30;;;;;;;;;;5000711;28;20141;-75
2022/08/26 10:40:03;;;;;;;2.88;0.93;;;;;;;;;;5002123;28;20050;-75
2022/08/26 10:42:35;;;;;;;4.13;0.98;;;;;;;;;;4997273;28;20076;-76
2022/08/26 10:45:03;;;;;;;;;;;;;;;;;;4996818;28;20050;-75
2022/08/26 10:47:35;;;;;;;5.95;1.00;;;;;;;;;;4992358;28;41378;-75
2022/08/26 10:50:04;;;;;;;5.18;1.02;;;;;;;;;;5003217;28;20106;-74
2022/08/26 10:52:51;;;;;;;5.43;1.17;;;;;;;;;;5005126;28;20066;-76
2022/08/26 10:55:28;;;;;;;7.53;1.27;;;;;;;;;;5001863;28;20085;-75
2022/08/26 10:58:06;;;;;;;6.47;1.13;;;;;;;;;;4997853;28;20059;-75
2022/08/26 11:03:51;;;;;;;7.03;1.38;;;;;;;;;;5001190;28;20062;-75
2022/08/26 11:06:21;;;;;;;8.75;0.93;;;;;;;;;;5003477;28;20054;-75
2022/08/26 11:08:59;;;;;;;3.65;0.80;;;;;;;;;;4994370;28;20061;-77
2022/08/26 11:11:39;;;;;;;4.35;0.85;;;;;;;;;;5021781;28;20139;-75
2022/08/26 11:14:10;;;;;;;4.78;0.98;;;;;;;;;;5005199;28;20050;-76
2022/08/26 11:16:40;;;;;;;6.30;0.95;;;;;;;;;;4998407;28;20058;-75
2022/08/26 11:19:11;;;;;;;5.13;1.00;;;;;;;;;;5016496;28;20178;-75
2022/08/26 11:21:48;;;;;;;4.03;0.88;;;;;;;;;;5000657;28;20141;-75
2022/08/26 11:24:35;;;;;;;3.25;1.00;;;;;;;;;;4996621;28;20051;-75
2022/08/26 11:27:03;;;;;;;4.53;0.90;;;;;;;;;;4995761;28;20109;-76
2022/08/26 11:29:50;;;;;;;6.05;1.00;;;;;;;;;;5009228;28;20058;-76
2022/08/26 11:32:26;;;;;;;3.55;0.75;;;;;;;;;;4997734;28;20795;-75
2022/08/26 11:34:58;;;;;;;3.88;0.73;;;;;;;;;;4997320;28;20114;-74
2022/08/26 11:37:31;;;;;;;11.10;1.20;;;;;;;;;;5003841;28;20133;-75
2022/08/26 11:40:01;;;;;;;3.40;0.80;;;;;;;;;;4996607;28;20420;-75
2022/08/26 11:42:33;;;;;;;2.38;0.80;;;;;;;;;;5006294;28;20062;-75
2022/08/26 11:45:13;;;;;;;3.75;0.95;;;;;;;;;;4999265;28;20050;-75
2022/08/26 11:47:40;;;;;;;4.63;0.88;;;;;;;;;;4999733;28;20090;-76
2022/08/26 11:50:16;;;;;;;8.82;0.90;;;;;;;;;;5003010;28;20085;-75
2022/08/26 11:52:53;;;;;;;7.03;1.10;;;;;;;;;;5000621;28;20070;-76
2022/08/26 11:55:20;;;;;;;2.47;0.93;;;;;;;;;;5005100;28;20058;-76
2022/08/26 11:57:51;;;;;;;5.55;1.10;;;;;;;;;;5014096;28;20061;-76
2022/08/26 12:00:23;;;;;;;2.75;1.10;;;;;;;;;;5000273;28;20051;-75
2022/08/26 12:02:50;;;;;;;2.67;0.70;;;;;;;;;;5005496;28;20057;-75
2022/08/26 12:05:23;;;;;;;2.42;0.90;;;;;;;;;;4999842;28;20070;-76
2022/08/26 12:07:53;;;;;;;5.30;1.13;;;;;;;;;;4998566;28;20081;-75
2022/08/26 12:10:32;;;;;;;3.05;0.80;;;;;;;;;;5017965;28;20058;-76
2022/08/26 12:13:00;;;;;;;7.38;1.13;;;;;;;;;;4996143;28;20113;-75
2022/08/26 12:15:29;;;;;;;3.45;1.13;;;;;;;;;;5005570;28;20149;-76
2022/08/26 12:17:59;;;;;;;3.05;1.00;;;;;;;;;;5000073;28;20136;-75
2022/08/26 12:20:27;;;;;;;2.30;0.82;;;;;;;;;;5003356;28;20053;-75
2022/08/26 12:22:55;;;;;;;2.60;0.85;;;;;;;;;;5000608;28;20047;-75
2022/08/26 12:25:23;;;;;;;5.10;0.90;;;;;;;;;;5000191;28;20046;-76
2022/08/26 12:28:02;;;;;;;5.93;1.17;;;;;;;;;;5012572;28;20932;-75
2022/08/26 12:30:30;;;;;;;2.65;0.90;;;;;;;;;;4992832;28;20054;-76
2022/08/26 12:33:07;;;;;;;4.35;0.82;;;;;;;;;;4996935;28;20082;-75
2022/08/26 12:35:49;;;;;;;3.42;1.13;;;;;;;;;;5002229;28;20077;-75
2022/08/26 12:38:23;;;;;;;2.83;0.77;;;;;;;;;;5002189;28;20086;-76
2022/08/26 12:40:50;;;;;;;5.07;1.17;;;;;;;;;;4994989;28;20051;-75
2022/08/26 12:43:38;;;;;;;5.75;0.88;;;;;;;;;;4995530;28;20453;-76
2022/08/26 12:46:05;;;;;;;5.35;0.98;;;;;;;;;;4996718;28;20968;-75
2022/08/26 12:48:35;;;;;;;3.33;0.95;;;;;;;;;;5012757;28;20072;-75
2022/08/26 12:51:02;;;;;;;5.65;1.20;;;;;;;;;;5003666;28;20054;-76
2022/08/26 12:53:31;;;;;;;4.18;1.05;;;;;;;;;;4998385;28;20047;-74
2022/08/26 12:56:02;;;;;;;3.63;1.00;;;;;;;;;;4999496;28;20082;-75
2022/08/26 12:58:33;;;;;;;3.67;1.20;;;;;;;;;;4999517;28;20848;-75
2022/08/26 13:01:05;;;;;;;4.13;1.35;;;;;;;;;;5007129;28;20050;-73
2022/08/26 13:03:44;;;;;;;5.25;0.95;;;;;;;;;;4995419;28;20062;-73
2022/08/26 13:06:17;;;;;;;3.97;0.98;;;;;;;;;;5002999;28;20058;-74
2022/08/26 13:08:50;;;;;;;2.53;0.73;;;;;;;;;;5005410;28;20097;-76
2022/08/26 13:11:22;;;;;;;3.30;0.98;;;;;;;;;;4998451;28;20057;-74
2022/08/26 13:13:55;;;;;;;4.85;0.80;;;;;;;;;;5002074;28;20846;-74
2022/08/26 13:16:24;;;;;;;3.13;0.88;;;;;;;;;;4998278;28;20164;-74
2022/08/26 13:18:54;;;;;;;3.97;0.90;;;;;;;;;;4999646;28;20053;-74
2022/08/26 13:21:28;;;;;;;4.35;0.90;;;;;;;;;;5004701;28;21290;-74
2022/08/26 13:24:05;;;;;;;2.85;0.80;;;;;;;;;;4997022;28;20110;-75
2022/08/26 13:26:32;;;;;;;1.85;0.60;;;;;;;;;;5004326;28;20058;-74
2022/08/26 13:28:59;;;;;;;0.75;0.68;;;;;;;;;;4998588;28;20105;-74
2022/08/26 13:31:29;;;;;;;2.80;0.90;;;;;;;;;;4996771;28;20129;-75
2022/08/26 13:33:56;;;;;;;3.38;0.85;;;;;;;;;;5000203;28;21724;-73
2022/08/26 13:36:32;;;;;;;2.42;0.63;;;;;;;;;;5177122;27;20386;-75
2022/08/26 13:39:00;;;;;;;1.42;0.88;;;;;;;;;;5185914;27;20046;-74
2022/08/26 13:41:28;;;;;;;5.63;1.08;;;;;;;;;;5187590;27;20048;-75
2022/08/26 13:43:56;;;;;;;3.08;0.82;;;;;;;;;;5180032;27;20055;-78
2022/08/26 13:46:25;;;;;;;4.00;1.23;;;;;;;;;;5174558;27;20082;-73
2022/08/26 13:48:53;;;;;;;3.95;1.08;;;;;;;;;;5186760;27;20097;-75
2022/08/26 13:51:21;;;;;;;5.03;1.10;;;;;;;;;;5184184;27;20141;-75
2022/08/26 13:53:49;;;;;;;6.57;1.10;;;;;;;;;;5179724;27;20050;-75
2022/08/26 13:56:17;;;;;;;3.28;0.90;;;;;;;;;;5184970;27;20039;-76
2022/08/26 13:58:45;;;;;;;3.65;0.80;;;;;;;;;;5177362;27;20055;-76
2022/08/26 14:01:14;;;;;;;4.10;1.08;;;;;;;;;;5162932;27;20129;-77
2022/08/26 14:03:42;;;;;;;1.00;0.52;;;;;;;;;;5170885;27;20047;-76
2022/08/26 14:06:09;;;;;;;5.13;1.10;;;;;;;;;;5179889;27;20046;-76
2022/08/26 14:08:38;;;;;;;5.82;1.10;;;;;;;;;;5187149;27;20432;-76
2022/08/26 14:11:05;;;;;;;1.63;0.85;;;;;;;;;;5184798;27;20038;-76
2022/08/26 14:13:32;;;;;;;2.95;0.70;;;;;;;;;;5182962;27;20054;-75
2022/08/26 14:16:01;;;;;;;5.72;1.10;;;;;;;;;;5180869;27;20107;-75
2022/08/26 14:18:31;;;;;;;3.67;0.77;;;;;;;;;;5180885;27;20782;-77
2022/08/26 14:20:59;;;;;;;2.53;0.90;;;;;;;;;;5183331;27;20051;-76
2022/08/26 14:23:27;;;;;;;4.93;1.23;;;;;;;;;;5167483;27;20110;-75
2022/08/26 14:25:54;;;;;;;1.98;0.82;;;;;;;;;;5152569;27;20049;-75
2022/08/26 14:28:21;;;;;;;5.72;0.98;;;;;;;;;;5150244;27;20074;-75
2022/08/26 14:30:51;;;;;;;4.55;1.10;;;;;;;;;;5146429;27;20047;-77
2022/08/26 14:33:21;;;;;;;5.00;1.30;;;;;;;;;;5159490;27;20042;-75
2022/08/26 14:35:49;;;;;;;5.60;1.20;;;;;;;;;;5152694;27;20112;-75
2022/08/26 14:38:16;;;;;;;5.72;1.10;;;;;;;;;;5157427;27;20134;-75
2022/08/26 14:40:43;;;;;;;3.03;1.00;;;;;;;;;;5155081;27;20053;-76
2022/08/26 14:43:13;;;;;;;3.33;1.10;;;;;;;;;;5153881;27;20039;-77
2022/08/26 14:45:42;;;;;;;4.05;1.00;;;;;;;;;;5148266;27;20083;-77
2022/08/26 14:48:14;;;;;;;4.97;1.13;;;;;;;;;;5135628;27;20807;-77
2022/08/26 14:50:41;;;;;;;7.30;1.00;;;;;;;;;;5142049;27;20082;-78
2022/08/26 14:55:55;;;;;;;5.90;1.33;;;;;;;;;;5138422;27;20814;-77
2022/08/26 14:58:22;;;;;;;7.07;0.88;;;;;;;;;;5135394;27;20081;-78
2022/08/26 15:00:49;;;;;;;3.42;0.90;;;;;;;;;;5135591;27;20518;-78
2022/08/26 15:03:16;;;;;;;4.85;0.98;;;;;;;;;;5140670;27;20906;-78
2022/08/26 15:05:45;;;;;;;4.55;1.00;;;;;;;;;;5140711;27;20092;-78
2022/08/26 15:08:14;;;;;;;4.20;1.25;;;;;;;;;;5136188;27;20764;-78
2022/08/26 15:10:42;;;;;;;4.22;1.00;;;;;;;;;;5133612;27;20040;-78
2022/08/26 15:13:09;;;;;;;3.70;1.17;;;;;;;;;;5135038;27;20048;-77
2022/08/26 15:15:36;;;;;;;4.97;1.10;;;;;;;;;;5136718;27;20056;-77